首页
METAR-TAF:

METAR-TAF

机场 :

沃特福德, 爱尔兰

纬度: 52-11-14N, 经度: 7-05-13W, 海拔: 36米

当前天气观测

该预报发布于22分钟前的14:30 UTC
风速6节,风向北转西北,在西转西北之间变化
温度 8°C
湿度 76%
气压 1021 hPa
能见度10公里或以上
少量云层高于2000英尺, 积雨云.
散云层高于3000英尺

METAR: EIWF 231430Z 33006KT 300V360 9999 FEW020CB SCT030 08/04 Q1021

时间: 14:52 (14:52 UTC)

预报

该预报发布于52分钟前的14:00 UTC
预报有效从23日的 15点(UTC)到 23日的 24点(UTC)
风速9节,风向西北
能见度10公里或以上
少量云层高于1200英尺
多云层高于2500英尺
成为
从 23日的 15点(UTC)到 23日的 17点(UTC)
风速3节,风向多变
成为
从 23日的 19点(UTC)到 23日的 21点(UTC)
风速10节,风向东转东南
多云层高于1200英尺
小雨
短暂存在
从 23日的 21点(UTC)到 23日的 24点(UTC)
能見度: 3000
多云层高于500英尺
成为
从 23日的 22点(UTC)到 23日的 24点(UTC)
风速17节,风向东南,有时为28节阵风
几率 30% :
短暂存在
从 23日的 22点(UTC)到 23日的 24点(UTC)
能見度: 0400
多云层高于200英尺

TAF: EIWF 231400Z 2315/2324 32009KT 9999 FEW012 BKN025 BECMG 2315/2317 VRB03KT BECMG 2319/2321 12010KT -RA BKN012 TEMPO 2321/2324 3000 RA BKN005 BECMG 2322/2324 13017G28KT PROB30 TEMPO 2322/2324 0400 FG BKN002

超过4000个机场的气象观测和天气预报(METAR&TAF报告)。

可查询的气象台以黄色和红色小点在地图上表示。

将鼠标移到小点上方,可查看气象台名称。

然后点击查看天气观测和预报。

如需切换地图:点击带黑十字的绿色按钮放大地图;点击带横线的绿色按钮缩小地图;或者点击绿色箭头查看邻近地区的地图。


METAR-TAF: